Time;durP1;ratioP1;P1;durP2;ratioP2;P2;SDS_P1;SDS_P2;PMS_P1;PMS_P2;Temp;Humidity;BMP_temperature;BMP_pressure;BME280_temperature;BME280_humidity;BME280_pressure;Samples;Min_cycle;Max_cycle;Signal;HPM_P1;HPM_P2
2022/07/30 00:00:18;;;;;;;8.85;4.15;;;;;;;;;;5042312;28;20100;-76
2022/07/30 00:02:51;;;;;;;7.43;4.10;;;;;;;;;;5043164;28;20946;-77
2022/07/30 00:05:18;;;;;;;10.63;4.53;;;;;;;;;;5043318;28;20144;-76
2022/07/30 00:07:47;;;;;;;10.60;3.85;;;;;;;;;;5049218;28;20148;-77
2022/07/30 00:10:14;;;;;;;7.95;4.00;;;;;;;;;;5051824;28;20052;-77
2022/07/30 00:12:41;;;;;;;7.47;4.10;;;;;;;;;;5043400;28;20965;-77
2022/07/30 00:15:09;;;;;;;6.78;4.13;;;;;;;;;;5042962;28;20058;-76
2022/07/30 00:17:36;;;;;;;9.50;4.30;;;;;;;;;;5038524;28;20053;-77
2022/07/30 00:20:04;;;;;;;9.82;4.30;;;;;;;;;;5037398;28;20777;-76
2022/07/30 00:22:32;;;;;;;11.93;4.53;;;;;;;;;;5042708;28;20057;-76
2022/07/30 00:24:59;;;;;;;9.82;4.00;;;;;;;;;;5048723;28;20213;-77
2022/07/30 00:27:26;;;;;;;12.43;4.45;;;;;;;;;;5043426;28;20073;-77
2022/07/30 00:29:53;;;;;;;7.40;4.45;;;;;;;;;;5040801;28;20046;-77
2022/07/30 00:32:21;;;;;;;5.72;3.40;;;;;;;;;;5040770;28;20892;-77
2022/07/30 00:34:48;;;;;;;10.05;4.07;;;;;;;;;;5033005;28;20064;-76
2022/07/30 00:37:15;;;;;;;11.05;3.90;;;;;;;;;;5051035;28;20049;-77
2022/07/30 00:39:42;;;;;;;9.73;4.30;;;;;;;;;;5043961;28;20045;-77
2022/07/30 00:42:09;;;;;;;9.70;3.90;;;;;;;;;;5043242;28;20137;-77
2022/07/30 00:44:37;;;;;;;8.23;3.95;;;;;;;;;;5041845;28;20817;-77
2022/07/30 00:47:07;;;;;;;7.50;3.80;;;;;;;;;;5036862;28;20060;-76
2022/07/30 00:49:34;;;;;;;7.65;4.07;;;;;;;;;;5035473;28;20053;-77
2022/07/30 00:52:01;;;;;;;11.32;3.88;;;;;;;;;;5036470;28;20060;-77
2022/07/30 00:54:28;;;;;;;7.65;3.63;;;;;;;;;;5044330;28;20056;-77
2022/07/30 00:56:55;;;;;;;10.60;4.25;;;;;;;;;;5045502;28;20972;-76
2022/07/30 00:59:23;;;;;;;6.20;3.63;;;;;;;;;;5047095;28;20053;-76
2022/07/30 01:01:50;;;;;;;11.43;3.70;;;;;;;;;;5038619;28;20057;-77
2022/07/30 01:04:17;;;;;;;7.95;3.95;;;;;;;;;;5046698;28;20132;-76
2022/07/30 01:06:45;;;;;;;12.65;4.03;;;;;;;;;;5045482;28;20045;-76
2022/07/30 01:09:12;;;;;;;11.30;3.97;;;;;;;;;;5036982;28;20053;-76
2022/07/30 01:11:40;;;;;;;10.10;3.70;;;;;;;;;;5038131;28;20060;-76
2022/07/30 01:14:08;;;;;;;8.30;4.18;;;;;;;;;;5034738;28;20046;-76
2022/07/30 01:16:37;;;;;;;6.95;4.22;;;;;;;;;;5035710;28;20760;-76
2022/07/30 01:22:02;;;;;;;9.18;4.13;;;;;;;;;;5039443;28;20060;-76
2022/07/30 01:24:37;;;;;;;8.40;4.10;;;;;;;;;;5040153;28;20056;-77
2022/07/30 01:27:06;;;;;;;10.07;4.20;;;;;;;;;;5036663;28;20055;-76
2022/07/30 01:29:34;;;;;;;7.57;4.03;;;;;;;;;;5045916;28;20053;-76
2022/07/30 01:32:02;;;;;;;6.47;4.05;;;;;;;;;;5040494;28;20057;-76
2022/07/30 01:34:32;;;;;;;8.85;3.95;;;;;;;;;;5047651;28;20041;-75
2022/07/30 01:37:00;;;;;;;7.68;3.13;;;;;;;;;;5044110;28;20053;-75
2022/07/30 01:39:29;;;;;;;7.38;3.92;;;;;;;;;;5043132;28;20905;-76
2022/07/30 01:41:57;;;;;;;6.85;3.28;;;;;;;;;;5057778;28;20053;-76
2022/07/30 01:44:27;;;;;;;7.22;4.25;;;;;;;;;;5040206;28;20799;-76
2022/07/30 01:46:55;;;;;;;8.05;4.00;;;;;;;;;;5048849;28;20104;-76
2022/07/30 01:49:23;;;;;;;7.15;4.15;;;;;;;;;;5036398;28;20046;-75
2022/07/30 01:51:51;;;;;;;7.97;4.43;;;;;;;;;;5045641;28;20053;-76
2022/07/30 01:54:19;;;;;;;10.43;4.55;;;;;;;;;;5040059;28;20534;-76
2022/07/30 01:56:47;;;;;;;9.98;4.68;;;;;;;;;;5037542;28;20826;-76
2022/07/30 01:59:18;;;;;;;8.88;4.85;;;;;;;;;;5044279;28;20104;-77
2022/07/30 02:01:45;;;;;;;9.15;4.85;;;;;;;;;;5042887;28;20116;-76
2022/07/30 02:04:12;;;;;;;10.93;5.22;;;;;;;;;;5042149;28;20046;-76
2022/07/30 02:06:42;;;;;;;8.63;4.75;;;;;;;;;;5035565;28;20050;-76
2022/07/30 02:09:09;;;;;;;11.55;5.03;;;;;;;;;;5036185;28;20057;-76
2022/07/30 02:14:32;;;;;;;8.32;4.93;;;;;;;;;;5038289;28;20140;-76
2022/07/30 02:17:02;;;;;;;10.75;5.88;;;;;;;;;;5048419;28;20504;-76
2022/07/30 02:19:33;;;;;;;11.43;5.35;;;;;;;;;;5042110;28;20107;-76
2022/07/30 02:22:04;;;;;;;12.40;5.90;;;;;;;;;;5033450;28;20057;-76
2022/07/30 02:24:36;;;;;;;10.55;5.82;;;;;;;;;;5047954;28;20850;-76
2022/07/30 02:27:08;;;;;;;12.73;6.07;;;;;;;;;;5034294;28;20910;-76
2022/07/30 02:29:36;;;;;;;13.07;6.30;;;;;;;;;;5048727;28;20060;-76
2022/07/30 02:32:05;;;;;;;11.00;6.30;;;;;;;;;;5036086;28;20141;-76
2022/07/30 02:34:34;;;;;;;13.98;7.28;;;;;;;;;;5038513;28;20057;-76
2022/07/30 02:37:01;;;;;;;13.63;6.80;;;;;;;;;;5038393;28;20143;-76
2022/07/30 02:39:30;;;;;;;15.10;6.43;;;;;;;;;;5037798;28;20050;-76
2022/07/30 02:41:57;;;;;;;13.35;6.15;;;;;;;;;;5038506;28;20056;-76
2022/07/30 02:44:27;;;;;;;14.55;6.00;;;;;;;;;;5043534;28;20060;-76
2022/07/30 02:46:56;;;;;;;13.55;6.72;;;;;;;;;;5044458;28;20064;-76
2022/07/30 02:49:24;;;;;;;11.65;6.57;;;;;;;;;;5044416;28;20059;-76
2022/07/30 02:51:51;;;;;;;10.95;6.50;;;;;;;;;;5043258;28;20056;-76
2022/07/30 02:54:19;;;;;;;7.93;6.00;;;;;;;;;;5040061;28;20050;-76
2022/07/30 02:56:48;;;;;;;11.43;6.32;;;;;;;;;;5037440;28;20156;-76
2022/07/30 02:59:17;;;;;;;11.65;6.07;;;;;;;;;;5042347;28;20054;-76
2022/07/30 03:01:44;;;;;;;13.13;6.15;;;;;;;;;;5043899;28;21585;-76
2022/07/30 03:04:12;;;;;;;11.10;6.50;;;;;;;;;;5047109;28;20088;-76
2022/07/30 03:06:39;;;;;;;10.13;5.85;;;;;;;;;;5043610;28;20100;-76
2022/07/30 03:09:08;;;;;;;8.77;5.93;;;;;;;;;;5040131;28;20826;-76
2022/07/30 03:11:36;;;;;;;8.85;4.88;;;;;;;;;;5039271;28;20052;-75
2022/07/30 03:14:06;;;;;;;8.55;5.47;;;;;;;;;;5048541;28;20154;-77
2022/07/30 03:16:36;;;;;;;11.40;5.65;;;;;;;;;;5035468;28;20049;-75
2022/07/30 03:19:06;;;;;;;11.88;6.00;;;;;;;;;;5036473;28;20060;-75
2022/07/30 03:21:35;;;;;;;7.25;5.10;;;;;;;;;;5043587;28;20133;-75
2022/07/30 03:24:04;;;;;;;11.38;6.13;;;;;;;;;;5038477;28;20090;-76
2022/07/30 03:26:32;;;;;;;9.23;5.82;;;;;;;;;;5043250;28;20092;-76
2022/07/30 03:28:59;;;;;;;8.05;5.20;;;;;;;;;;5034280;28;20145;-76
2022/07/30 03:31:27;;;;;;;9.13;5.43;;;;;;;;;;5040079;28;20188;-76
2022/07/30 03:34:03;;;;;;;10.77;5.72;;;;;;;;;;5041503;28;20139;-76
2022/07/30 03:36:33;;;;;;;8.50;5.28;;;;;;;;;;5038051;28;20063;-76
2022/07/30 03:39:02;;;;;;;11.63;5.80;;;;;;;;;;5040235;28;20057;-76
2022/07/30 03:41:30;;;;;;;11.73;6.20;;;;;;;;;;5043664;28;20089;-75
2022/07/30 03:43:59;;;;;;;9.93;6.38;;;;;;;;;;5044724;28;20057;-75
2022/07/30 03:46:26;;;;;;;11.95;6.78;;;;;;;;;;5040099;28;20140;-75
2022/07/30 03:48:54;;;;;;;10.73;6.57;;;;;;;;;;5042974;28;20053;-76
2022/07/30 03:51:21;;;;;;;10.80;6.50;;;;;;;;;;5043094;28;20057;-76
2022/07/30 03:53:50;;;;;;;12.10;6.68;;;;;;;;;;5037279;28;20046;-75
2022/07/30 03:56:17;;;;;;;16.38;7.80;;;;;;;;;;5043594;28;20502;-75
2022/07/30 03:58:44;;;;;;;10.95;6.57;;;;;;;;;;5040753;28;20053;-75
2022/07/30 04:01:11;;;;;;;11.02;7.32;;;;;;;;;;5040541;28;20144;-75
2022/07/30 04:03:39;;;;;;;17.60;7.55;;;;;;;;;;5036722;28;20060;-76
2022/07/30 04:06:06;;;;;;;13.57;7.47;;;;;;;;;;5041204;28;20049;-75
2022/07/30 04:08:33;;;;;;;17.98;8.00;;;;;;;;;;5042121;28;20177;-76
2022/07/30 04:11:00;;;;;;;11.43;6.50;;;;;;;;;;5045521;28;20049;-76
2022/07/30 04:13:27;;;;;;;16.23;7.50;;;;;;;;;;5040422;28;20160;-76
2022/07/30 04:16:05;;;;;;;13.07;6.70;;;;;;;;;;5044727;28;20092;-75
2022/07/30 04:18:54;;;;;;;13.30;7.03;;;;;;;;;;5037729;28;20046;-75
2022/07/30 04:21:22;;;;;;;14.57;6.93;;;;;;;;;;5037441;28;20140;-75
2022/07/30 04:23:50;;;;;;;10.95;6.45;;;;;;;;;;5043871;28;20958;-75
2022/07/30 04:26:31;;;;;;;10.05;5.88;;;;;;;;;;5038429;28;20115;-75
2022/07/30 04:28:59;;;;;;;9.65;6.65;;;;;;;;;;5045335;28;20140;-75
2022/07/30 04:31:27;;;;;;;13.55;7.55;;;;;;;;;;5045450;28;20050;-76
2022/07/30 04:33:55;;;;;;;17.70;7.75;;;;;;;;;;5039007;28;20162;-75
2022/07/30 04:36:31;;;;;;;17.77;7.10;;;;;;;;;;5039161;28;20829;-75
2022/07/30 04:38:58;;;;;;;12.25;6.88;;;;;;;;;;5044337;28;20148;-75
2022/07/30 04:41:26;;;;;;;10.15;6.80;;;;;;;;;;5046415;28;20938;-75
2022/07/30 04:43:53;;;;;;;9.90;7.35;;;;;;;;;;5045215;28;20058;-75
2022/07/30 04:46:21;;;;;;;12.85;7.57;;;;;;;;;;5033233;28;20045;-75
2022/07/30 04:48:51;;;;;;;15.07;8.00;;;;;;;;;;5045388;28;20049;-76
2022/07/30 04:51:38;;;;;;;19.40;11.57;;;;;;;;;;5050703;28;20052;-76
2022/07/30 04:54:08;;;;;;;17.08;9.73;;;;;;;;;;5040056;28;20054;-75
2022/07/30 04:56:42;;;;;;;19.58;10.80;;;;;;;;;;5045415;28;20735;-75
2022/07/30 04:59:21;;;;;;;19.90;12.02;;;;;;;;;;5043601;28;20076;-75
2022/07/30 05:01:48;;;;;;;18.75;11.45;;;;;;;;;;5043041;28;20956;-76
2022/07/30 05:04:17;;;;;;;21.48;10.82;;;;;;;;;;5044212;28;20155;-75
2022/07/30 05:06:45;;;;;;;19.98;11.77;;;;;;;;;;5041502;28;20128;-76
2022/07/30 05:09:14;;;;;;;20.83;11.90;;;;;;;;;;5042925;28;20046;-75
2022/07/30 05:11:41;;;;;;;19.90;11.82;;;;;;;;;;5043834;28;20188;-75
2022/07/30 05:14:08;;;;;;;23.70;12.57;;;;;;;;;;5045314;28;20052;-75
2022/07/30 05:16:35;;;;;;;21.17;11.15;;;;;;;;;;5038941;28;20792;-75
2022/07/30 05:19:02;;;;;;;21.10;12.27;;;;;;;;;;5042849;28;20049;-76
2022/07/30 05:21:33;;;;;;;18.25;11.55;;;;;;;;;;5044856;28;20057;-75
2022/07/30 05:24:01;;;;;;;20.85;11.90;;;;;;;;;;5046254;28;20060;-76
2022/07/30 05:26:28;;;;;;;17.77;11.48;;;;;;;;;;5044841;28;20172;-75
2022/07/30 05:28:55;;;;;;;18.42;10.75;;;;;;;;;;5040534;28;20059;-75
2022/07/30 05:31:23;;;;;;;15.80;10.57;;;;;;;;;;5046044;28;20056;-75
2022/07/30 05:33:51;;;;;;;17.98;10.73;;;;;;;;;;5043372;28;20716;-75
2022/07/30 05:36:19;;;;;;;21.50;10.95;;;;;;;;;;5047241;28;20057;-76
2022/07/30 05:38:46;;;;;;;16.10;10.32;;;;;;;;;;5046562;28;20129;-76
2022/07/30 05:41:13;;;;;;;18.73;10.05;;;;;;;;;;5049774;28;20058;-75
2022/07/30 05:43:58;;;;;;;19.33;9.48;;;;;;;;;;5041382;28;20054;-75
2022/07/30 05:46:25;;;;;;;19.88;9.52;;;;;;;;;;5044549;28;20148;-75
2022/07/30 05:48:53;;;;;;;14.07;9.10;;;;;;;;;;5044029;28;20057;-75
2022/07/30 05:51:21;;;;;;;17.35;9.38;;;;;;;;;;5041274;28;20045;-76
2022/07/30 05:53:48;;;;;;;15.38;8.75;;;;;;;;;;5047150;28;20129;-76
2022/07/30 05:56:16;;;;;;;19.02;10.27;;;;;;;;;;5042467;28;20049;-75
2022/07/30 05:58:43;;;;;;;17.52;8.68;;;;;;;;;;5046777;28;20099;-75
2022/07/30 06:01:10;;;;;;;15.68;9.50;;;;;;;;;;5045479;28;20057;-75
2022/07/30 06:03:38;;;;;;;13.80;7.63;;;;;;;;;;5038574;28;20779;-75
2022/07/30 06:06:06;;;;;;;14.93;8.40;;;;;;;;;;5037636;28;20492;-75
2022/07/30 06:08:34;;;;;;;13.50;7.63;;;;;;;;;;5037152;28;20049;-75
2022/07/30 06:11:01;;;;;;;19.20;7.20;;;;;;;;;;5039141;28;20050;-76
2022/07/30 06:13:29;;;;;;;11.73;6.80;;;;;;;;;;5039388;28;20601;-75
2022/07/30 06:15:56;;;;;;;15.98;6.97;;;;;;;;;;5046079;28;20132;-75
2022/07/30 06:18:23;;;;;;;14.32;6.82;;;;;;;;;;5043582;28;20061;-75
2022/07/30 06:20:52;;;;;;;11.57;5.97;;;;;;;;;;5044808;28;20132;-76
2022/07/30 06:23:21;;;;;;;17.92;5.95;;;;;;;;;;5037591;28;20127;-75
2022/07/30 06:25:48;;;;;;;13.95;5.78;;;;;;;;;;5039706;28;20105;-75
2022/07/30 06:28:18;;;;;;;9.05;5.30;;;;;;;;;;5026402;28;20133;-75
2022/07/30 06:31:06;;;;;;;10.18;4.80;;;;;;;;;;5000144;28;20970;-75
2022/07/30 06:33:33;;;;;;;16.73;5.32;;;;;;;;;;5001979;28;20062;-75
2022/07/30 06:36:00;;;;;;;11.73;5.22;;;;;;;;;;5002273;28;20050;-76
2022/07/30 06:38:27;;;;;;;13.02;5.10;;;;;;;;;;5010624;28;20054;-75
2022/07/30 06:40:55;;;;;;;11.73;3.97;;;;;;;;;;5001724;28;20054;-76
2022/07/30 06:43:28;;;;;;;11.50;4.05;;;;;;;;;;5002723;28;20055;-76
2022/07/30 06:45:56;;;;;;;8.63;3.70;;;;;;;;;;5004318;28;20046;-76
2022/07/30 06:48:23;;;;;;;8.90;3.72;;;;;;;;;;5003435;28;20081;-76
2022/07/30 06:50:50;;;;;;;6.82;2.67;;;;;;;;;;5006005;28;20045;-76
2022/07/30 06:53:18;;;;;;;11.30;3.15;;;;;;;;;;5006272;28;20043;-76
2022/07/30 06:55:45;;;;;;;7.95;2.72;;;;;;;;;;5028491;28;20051;-78
2022/07/30 06:58:12;;;;;;;12.20;2.90;;;;;;;;;;5016132;28;20054;-76
2022/07/30 07:00:41;;;;;;;5.90;2.08;;;;;;;;;;5016540;28;20129;-76
2022/07/30 07:03:09;;;;;;;9.57;2.38;;;;;;;;;;5011257;28;20047;-76
2022/07/30 07:05:38;;;;;;;8.75;2.17;;;;;;;;;;5017661;28;20046;-78
2022/07/30 07:08:05;;;;;;;9.55;2.42;;;;;;;;;;5017331;28;20038;-76
2022/07/30 07:10:32;;;;;;;5.28;2.15;;;;;;;;;;5014274;28;20046;-78
2022/07/30 07:13:00;;;;;;;6.45;2.28;;;;;;;;;;5015447;28;20039;-76
2022/07/30 07:15:27;;;;;;;11.85;2.42;;;;;;;;;;5005928;28;20057;-76
2022/07/30 07:18:03;;;;;;;6.03;2.60;;;;;;;;;;5007902;28;20057;-77
2022/07/30 07:20:31;;;;;;;4.65;2.50;;;;;;;;;;5005750;28;20050;-77
2022/07/30 07:22:58;;;;;;;7.70;2.53;;;;;;;;;;5009732;28;20050;-76
2022/07/30 07:25:26;;;;;;;9.38;2.58;;;;;;;;;;5013123;28;20134;-76
2022/07/30 07:27:53;;;;;;;6.88;2.67;;;;;;;;;;5028878;28;20050;-76
2022/07/30 07:30:39;;;;;;;7.05;2.38;;;;;;;;;;5018507;28;20050;-77
2022/07/30 07:33:07;;;;;;;8.13;2.38;;;;;;;;;;5026766;28;20023;-77
2022/07/30 07:35:35;;;;;;;7.45;2.30;;;;;;;;;;5031372;28;20062;-78
2022/07/30 07:38:16;;;;;;;9.02;2.67;;;;;;;;;;5031802;28;20145;-78
2022/07/30 07:40:43;;;;;;;7.53;2.33;;;;;;;;;;5030717;28;20102;-78
2022/07/30 07:43:10;;;;;;;6.25;2.45;;;;;;;;;;5032003;28;20077;-78
2022/07/30 07:45:38;;;;;;;8.45;2.75;;;;;;;;;;5030908;28;20053;-78
2022/07/30 07:48:05;;;;;;;8.48;2.60;;;;;;;;;;5030693;28;20041;-78
2022/07/30 07:50:33;;;;;;;4.75;2.33;;;;;;;;;;5020743;28;20047;-77
2022/07/30 07:53:00;;;;;;;6.85;2.70;;;;;;;;;;5006788;28;20056;-76
2022/07/30 07:55:27;;;;;;;10.23;2.70;;;;;;;;;;5002554;28;20424;-77
2022/07/30 07:57:58;;;;;;;6.68;2.60;;;;;;;;;;5006270;28;20047;-77
2022/07/30 08:00:26;;;;;;;7.47;2.40;;;;;;;;;;5004475;28;20050;-77
2022/07/30 08:02:55;;;;;;;6.03;2.40;;;;;;;;;;5015683;28;20111;-77
2022/07/30 08:05:22;;;;;;;6.65;2.47;;;;;;;;;;5009604;28;20054;-77
2022/07/30 08:07:49;;;;;;;12.50;2.33;;;;;;;;;;5008403;28;20101;-77
2022/07/30 08:10:17;;;;;;;7.05;2.13;;;;;;;;;;5006940;28;20937;-77
2022/07/30 08:12:44;;;;;;;6.47;2.00;;;;;;;;;;5012514;28;20865;-77
2022/07/30 08:15:12;;;;;;;8.23;2.20;;;;;;;;;;5005667;28;20149;-77
2022/07/30 08:17:43;;;;;;;5.10;2.15;;;;;;;;;;5009277;28;20058;-76
2022/07/30 08:20:11;;;;;;;5.18;1.90;;;;;;;;;;5014191;28;20080;-77
2022/07/30 08:22:38;;;;;;;6.88;2.28;;;;;;;;;;5012872;28;20046;-76
2022/07/30 08:25:06;;;;;;;8.73;2.80;;;;;;;;;;5014392;28;20085;-78
2022/07/30 08:27:34;;;;;;;6.47;1.75;;;;;;;;;;5010345;28;20042;-77
2022/07/30 08:30:05;;;;;;;9.93;2.10;;;;;;;;;;5010578;28;20034;-77
2022/07/30 08:32:32;;;;;;;3.10;1.50;;;;;;;;;;5012519;28;20081;-76
2022/07/30 08:35:00;;;;;;;5.10;2.25;;;;;;;;;;5020274;28;20097;-77
2022/07/30 08:37:27;;;;;;;4.22;1.65;;;;;;;;;;5022535;28;20103;-77
2022/07/30 08:39:55;;;;;;;7.28;1.80;;;;;;;;;;5024731;28;20045;-78
2022/07/30 08:42:23;;;;;;;4.43;1.50;;;;;;;;;;5032569;28;20033;-78
2022/07/30 08:44:52;;;;;;;6.95;2.05;;;;;;;;;;5030465;28;20054;-78
2022/07/30 08:47:23;;;;;;;5.18;1.70;;;;;;;;;;5032731;28;20069;-78
2022/07/30 08:49:50;;;;;;;2.35;1.30;;;;;;;;;;5034484;28;20054;-77
2022/07/30 08:52:17;;;;;;;2.60;1.40;;;;;;;;;;5031185;28;20102;-78
2022/07/30 08:54:45;;;;;;;5.88;2.08;;;;;;;;;;5027849;28;20054;-78
2022/07/30 08:57:12;;;;;;;6.57;1.70;;;;;;;;;;5017783;28;20054;-77
2022/07/30 08:59:39;;;;;;;6.78;1.55;;;;;;;;;;5010969;28;20061;-77
2022/07/30 09:02:26;;;;;;;6.78;1.73;;;;;;;;;;5017228;28;20034;-77
2022/07/30 09:04:55;;;;;;;4.35;1.70;;;;;;;;;;5012646;28;20058;-77
2022/07/30 09:07:23;;;;;;;7.20;1.90;;;;;;;;;;5012886;28;20053;-76
2022/07/30 09:09:51;;;;;;;6.00;1.70;;;;;;;;;;4998403;28;20046;-77
2022/07/30 09:12:37;;;;;;;6.18;1.73;;;;;;;;;;5002351;28;20050;-77
2022/07/30 09:15:07;;;;;;;5.60;1.70;;;;;;;;;;5004956;28;21653;-76
2022/07/30 09:18:06;;;;;;;8.05;1.80;;;;;;;;;;5004460;28;20065;-77
2022/07/30 09:20:35;;;;;;;6.30;1.63;;;;;;;;;;4996588;28;20133;-76
2022/07/30 09:23:03;;;;;;;6.30;1.80;;;;;;;;;;5004902;28;20145;-77
2022/07/30 09:25:38;;;;;;;5.25;1.75;;;;;;;;;;5003403;28;20050;-76
2022/07/30 09:28:08;;;;;;;5.00;1.98;;;;;;;;;;5001893;28;20101;-76
2022/07/30 09:30:53;;;;;;;3.47;1.80;;;;;;;;;;5012075;28;20062;-76
2022/07/30 09:33:31;;;;;;;2.70;1.65;;;;;;;;;;5002954;28;20059;-76
2022/07/30 09:36:00;;;;;;;3.80;1.80;;;;;;;;;;5001193;28;20055;-77
2022/07/30 09:38:27;;;;;;;3.88;1.80;;;;;;;;;;5003028;28;20149;-76
2022/07/30 09:40:56;;;;;;;6.65;2.00;;;;;;;;;;5001030;28;20042;-78
2022/07/30 09:43:24;;;;;;;7.50;2.13;;;;;;;;;;5002080;28;20058;-78
2022/07/30 09:45:57;;;;;;;3.85;1.60;;;;;;;;;;5005744;28;20050;-78
2022/07/30 09:48:25;;;;;;;4.47;1.92;;;;;;;;;;5001139;28;20058;-78
2022/07/30 09:50:53;;;;;;;7.43;1.50;;;;;;;;;;5005373;28;20070;-78
2022/07/30 09:53:23;;;;;;;6.15;1.65;;;;;;;;;;5006019;28;20058;-79
2022/07/30 09:55:51;;;;;;;5.45;1.55;;;;;;;;;;5008366;28;20082;-78
2022/07/30 09:58:18;;;;;;;4.65;1.58;;;;;;;;;;4999691;28;20050;-78
2022/07/30 10:00:57;;;;;;;3.72;1.50;;;;;;;;;;5007184;28;20065;-79
2022/07/30 10:03:26;;;;;;;3.42;1.80;;;;;;;;;;5001092;28;20051;-78
2022/07/30 10:06:00;;;;;;;4.32;1.83;;;;;;;;;;5008436;28;20719;-78
2022/07/30 10:08:43;;;;;;;5.97;1.50;;;;;;;;;;5005896;28;20174;-77
2022/07/30 10:11:13;;;;;;;5.38;1.60;;;;;;;;;;5006369;28;20145;-78
2022/07/30 10:13:41;;;;;;;3.95;1.48;;;;;;;;;;5008038;28;20061;-78
2022/07/30 10:16:12;;;;;;;4.15;1.58;;;;;;;;;;5009154;28;20070;-78
2022/07/30 10:18:41;;;;;;;1.67;1.17;;;;;;;;;;5011038;28;20055;-78
2022/07/30 10:21:10;;;;;;;3.10;1.45;;;;;;;;;;5002433;28;20054;-78
2022/07/30 10:23:39;;;;;;;3.58;1.50;;;;;;;;;;5006833;28;20050;-78
2022/07/30 10:26:11;;;;;;;;;;;;;;;;;;5002012;28;20055;-79
2022/07/30 10:28:39;;;;;;;3.70;1.30;;;;;;;;;;5002577;28;43157;-78
2022/07/30 10:31:07;;;;;;;6.57;1.70;;;;;;;;;;5006924;28;20057;-78
2022/07/30 10:33:54;;;;;;;2.03;1.13;;;;;;;;;;5004251;28;20058;-79
2022/07/30 10:36:22;;;;;;;7.40;1.67;;;;;;;;;;5008152;28;20050;-78
2022/07/30 10:38:51;;;;;;;3.60;1.50;;;;;;;;;;5000473;28;20058;-78
2022/07/30 10:41:22;;;;;;;4.40;1.40;;;;;;;;;;5003047;28;20046;-78
2022/07/30 10:44:25;;;;;;;4.03;1.40;;;;;;;;;;5005913;28;20066;-78
2022/07/30 10:47:01;;;;;;;9.32;1.63;;;;;;;;;;5016198;28;20058;-78
2022/07/30 10:49:33;;;;;;;4.07;1.40;;;;;;;;;;5006392;28;20054;-78
2022/07/30 10:52:08;;;;;;;4.07;1.60;;;;;;;;;;5004539;28;20046;-78
2022/07/30 10:54:46;;;;;;;3.83;1.27;;;;;;;;;;5004540;28;20057;-76
2022/07/30 10:57:13;;;;;;;4.45;1.33;;;;;;;;;;5004477;28;20062;-77
2022/07/30 10:59:58;;;;;;;3.22;1.48;;;;;;;;;;5009489;28;20058;-77
2022/07/30 11:02:28;;;;;;;3.15;1.50;;;;;;;;;;5005694;28;20054;-78
2022/07/30 11:05:15;;;;;;;5.30;1.58;;;;;;;;;;5003123;28;20804;-78
2022/07/30 11:07:44;;;;;;;6.00;1.67;;;;;;;;;;5004484;28;20047;-78
2022/07/30 11:10:32;;;;;;;4.07;1.38;;;;;;;;;;5004434;28;20145;-78
2022/07/30 11:12:59;;;;;;;3.25;1.40;;;;;;;;;;5005104;28;20047;-77
2022/07/30 11:15:47;;;;;;;6.28;1.60;;;;;;;;;;5005200;28;20053;-78
2022/07/30 11:18:14;;;;;;;4.90;1.60;;;;;;;;;;5005635;28;20054;-77
2022/07/30 11:20:42;;;;;;;4.43;1.60;;;;;;;;;;4998789;28;20054;-78
2022/07/30 11:23:24;;;;;;;5.88;2.15;;;;;;;;;;5001214;28;20060;-77
2022/07/30 11:25:55;;;;;;;4.03;1.65;;;;;;;;;;5004168;28;20551;-78
2022/07/30 11:28:51;;;;;;;3.80;1.60;;;;;;;;;;5002478;28;20125;-78
2022/07/30 11:31:31;;;;;;;4.57;1.40;;;;;;;;;;4990661;28;20050;-78
2022/07/30 11:34:19;;;;;;;3.20;1.55;;;;;;;;;;4998393;28;20055;-78
2022/07/30 11:37:02;;;;;;;5.30;1.27;;;;;;;;;;5003638;28;20055;-77
2022/07/30 11:39:57;;;;;;;5.20;1.60;;;;;;;;;;5006395;28;20050;-78
2022/07/30 11:42:38;;;;;;;3.45;1.27;;;;;;;;;;4998334;28;20061;-78
2022/07/30 11:45:14;;;;;;;2.65;1.50;;;;;;;;;;5015322;28;20052;-77
2022/07/30 11:47:43;;;;;;;6.07;1.35;;;;;;;;;;5005132;28;20512;-77
2022/07/30 11:50:24;;;;;;;2.47;1.33;;;;;;;;;;5001397;28;20134;-77
2022/07/30 11:52:52;;;;;;;3.70;1.30;;;;;;;;;;5001847;28;20062;-78
2022/07/30 11:55:24;;;;;;;5.30;1.88;;;;;;;;;;5002984;28;20081;-77
2022/07/30 11:57:51;;;;;;;4.15;1.60;;;;;;;;;;5004148;28;20193;-79
2022/07/30 12:00:19;;;;;;;3.85;1.50;;;;;;;;;;5003151;28;20054;-77
2022/07/30 12:02:47;;;;;;;7.90;1.67;;;;;;;;;;5009710;28;20146;-77
2022/07/30 12:05:24;;;;;;;5.93;1.25;;;;;;;;;;5010974;28;20050;-78
2022/07/30 12:07:58;;;;;;;4.03;1.73;;;;;;;;;;5002473;28;20038;-77
2022/07/30 12:10:25;;;;;;;3.33;1.40;;;;;;;;;;5004241;28;20123;-77
2022/07/30 12:13:06;;;;;;;3.75;1.20;;;;;;;;;;5007909;28;20574;-78
2022/07/30 12:15:35;;;;;;;2.67;1.20;;;;;;;;;;5005661;28;20058;-77
2022/07/30 12:18:02;;;;;;;3.80;1.80;;;;;;;;;;5005165;28;20113;-78
2022/07/30 12:20:53;;;;;;;4.65;1.48;;;;;;;;;;5002622;28;20141;-78
2022/07/30 12:23:23;;;;;;;4.95;1.20;;;;;;;;;;4996083;28;20082;-78
2022/07/30 12:25:51;;;;;;;3.45;1.50;;;;;;;;;;5010318;28;20061;-79
2022/07/30 12:28:20;;;;;;;2.65;1.30;;;;;;;;;;5006540;28;20073;-79
2022/07/30 12:30:50;;;;;;;3.17;1.30;;;;;;;;;;4999091;28;20162;-79
2022/07/30 12:33:18;;;;;;;4.78;1.58;;;;;;;;;;5000337;28;20145;-79
2022/07/30 12:35:46;;;;;;;5.20;1.38;;;;;;;;;;5001861;28;20042;-78
2022/07/30 12:38:15;;;;;;;4.82;2.22;;;;;;;;;;5002918;28;20054;-78
2022/07/30 12:40:58;;;;;;;4.47;1.48;;;;;;;;;;5001559;28;20050;-78
2022/07/30 12:43:45;;;;;;;5.50;1.42;;;;;;;;;;5000082;28;20851;-78
2022/07/30 12:46:13;;;;;;;6.13;1.55;;;;;;;;;;4999001;28;20489;-79
2022/07/30 12:48:56;;;;;;;2.10;1.30;;;;;;;;;;5001155;28;20079;-76
2022/07/30 12:51:31;;;;;;;3.55;1.40;;;;;;;;;;4999315;28;20050;-77
2022/07/30 12:54:23;;;;;;;5.53;1.30;;;;;;;;;;5001916;28;20057;-77
2022/07/30 12:56:58;;;;;;;3.53;1.20;;;;;;;;;;5006351;28;20117;-77
2022/07/30 12:59:26;;;;;;;3.40;1.42;;;;;;;;;;5001748;28;20078;-78
2022/07/30 13:01:55;;;;;;;6.00;1.50;;;;;;;;;;4997877;28;20884;-78
2022/07/30 13:04:23;;;;;;;5.43;1.20;;;;;;;;;;4996255;28;20146;-77
2022/07/30 13:07:03;;;;;;;4.53;1.30;;;;;;;;;;5003828;28;20061;-77
2022/07/30 13:09:31;;;;;;;5.35;1.48;;;;;;;;;;4999125;28;20059;-77
2022/07/30 13:11:58;;;;;;;3.80;1.50;;;;;;;;;;5004508;28;20051;-78
2022/07/30 13:14:26;;;;;;;2.25;1.25;;;;;;;;;;5014166;28;20101;-77
2022/07/30 13:16:57;;;;;;;7.00;1.83;;;;;;;;;;4992279;28;20047;-77
2022/07/30 13:19:26;;;;;;;3.00;1.20;;;;;;;;;;5000226;28;20047;-77
2022/07/30 13:21:54;;;;;;;4.38;1.52;;;;;;;;;;5000144;28;20055;-78
2022/07/30 13:24:21;;;;;;;2.88;1.27;;;;;;;;;;4999373;28;20046;-77
2022/07/30 13:26:48;;;;;;;9.52;2.05;;;;;;;;;;5001580;28;20153;-78
2022/07/30 13:29:17;;;;;;;3.17;1.58;;;;;;;;;;4997506;28;20133;-77
2022/07/30 13:31:44;;;;;;;3.28;1.40;;;;;;;;;;4996698;28;20149;-77
2022/07/30 13:34:13;;;;;;;2.30;1.40;;;;;;;;;;5002733;28;20398;-78
2022/07/30 13:36:40;;;;;;;2.78;1.25;;;;;;;;;;4997666;28;20061;-77
2022/07/30 13:39:08;;;;;;;6.22;1.30;;;;;;;;;;5001239;28;20105;-77
2022/07/30 13:41:35;;;;;;;3.10;1.40;;;;;;;;;;5002341;28;20057;-77
2022/07/30 13:44:02;;;;;;;5.10;1.30;;;;;;;;;;5005737;28;20054;-77
2022/07/30 13:46:30;;;;;;;2.45;1.40;;;;;;;;;;5000283;28;20058;-77
2022/07/30 13:48:57;;;;;;;4.65;1.40;;;;;;;;;;4998409;28;20055;-77
2022/07/30 13:51:24;;;;;;;2.13;1.48;;;;;;;;;;4999688;28;20043;-77
2022/07/30 13:53:55;;;;;;;6.72;1.40;;;;;;;;;;5000874;28;20054;-77
2022/07/30 13:56:22;;;;;;;4.30;1.40;;;;;;;;;;5000770;28;21007;-77
2022/07/30 13:58:50;;;;;;;2.70;1.48;;;;;;;;;;4995424;28;20069;-77
2022/07/30 14:01:17;;;;;;;5.68;1.70;;;;;;;;;;5004200;28;20090;-77
2022/07/30 14:03:45;;;;;;;3.33;1.48;;;;;;;;;;5002499;28;20852;-77
2022/07/30 14:06:17;;;;;;;7.17;1.83;;;;;;;;;;5002252;28;20058;-77
2022/07/30 14:08:44;;;;;;;4.22;1.33;;;;;;;;;;5002520;28;20274;-78
2022/07/30 14:11:12;;;;;;;3.67;1.20;;;;;;;;;;5004811;28;20047;-78
2022/07/30 14:13:39;;;;;;;3.67;1.27;;;;;;;;;;5000776;28;20485;-78
2022/07/30 14:16:06;;;;;;;4.07;1.60;;;;;;;;;;4996364;28;20055;-78
2022/07/30 14:18:56;;;;;;;7.25;1.70;;;;;;;;;;5001571;28;20063;-77
2022/07/30 14:21:25;;;;;;;3.40;1.42;;;;;;;;;;5002461;28;20050;-78
2022/07/30 14:23:53;;;;;;;5.78;1.60;;;;;;;;;;5004484;28;20051;-77
2022/07/30 14:26:23;;;;;;;3.05;1.20;;;;;;;;;;4994807;28;20050;-77
2022/07/30 14:28:56;;;;;;;1.67;1.30;;;;;;;;;;4998635;28;20811;-78
2022/07/30 14:31:23;;;;;;;4.70;1.40;;;;;;;;;;4996354;28;20178;-78
2022/07/30 14:33:50;;;;;;;2.55;1.50;;;;;;;;;;5004582;28;20137;-77
2022/07/30 14:36:26;;;;;;;4.93;1.30;;;;;;;;;;4998045;28;20055;-78
2022/07/30 14:38:54;;;;;;;8.07;2.25;;;;;;;;;;4999694;28;20059;-78
2022/07/30 14:41:23;;;;;;;6.40;1.55;;;;;;;;;;4997858;28;20046;-78
2022/07/30 14:43:50;;;;;;;5.28;1.50;;;;;;;;;;5007918;28;20604;-78
2022/07/30 14:46:18;;;;;;;4.25;1.30;;;;;;;;;;5005277;28;20053;-77
2022/07/30 14:48:45;;;;;;;3.15;1.45;;;;;;;;;;4998238;28;20133;-77
2022/07/30 14:51:12;;;;;;;4.07;1.45;;;;;;;;;;5002715;28;20051;-78
2022/07/30 14:53:50;;;;;;;8.57;1.35;;;;;;;;;;5006462;28;20056;-78
2022/07/30 14:56:18;;;;;;;4.25;1.30;;;;;;;;;;5016832;28;20043;-78
2022/07/30 14:58:45;;;;;;;4.38;1.83;;;;;;;;;;5001545;28;20114;-77
2022/07/30 15:01:14;;;;;;;7.95;1.75;;;;;;;;;;5008408;28;20047;-78